Heroic Leader — C6ZD2 — position and weather

sailwx.info

Track history (hours):
 
Tides and Currents Weather Stations Pressure Air Temp Water Temp Dewpoint Dewpoint Depression Visibility Wind Speed Wind Dir Waves Ship Positions

Heroic Leader

Last reported at 2015-Jan-27 10:10 UTC. Time now 2015-Mar-01 03:04 UTC.
Position N 34°49' E 139°36'.
Warning: this ship's position is 32 days out of date.

Length 200 m; draft 9.1 m.

Type: Cargo ship. MMSI: 311052700.

Date/timePositionNaut miles runAvg speedWind from/ knotsBaromVisibWave heightAir tempDewpointWater temp
2015-Jan-27 10:10N 34°49' E 139°36'813.7
2015-Jan-27 09:33N 34°57' E 139°39'1312.9
2015-Jan-27 08:33N 35°10' E 139°44'1110.6
2015-Jan-27 07:33N 35°20' E 139°42'10 9.7
2015-Jan-27 06:33N 35°30' E 139°46'0 0.1
2015-Jan-27 05:32N 35°30' E 139°46'0 0.0
2015-Jan-27 04:32N 35°30' E 139°46'0 0.0
2015-Jan-27 03:32N 35°30' E 139°46'0 0.0
2015-Jan-27 02:32N 35°30' E 139°46'0 0.0
2015-Jan-27 01:32N 35°30' E 139°46'0 0.0
2015-Jan-27 00:32N 35°30' E 139°46'0 0.0
2015-Jan-26 23:32N 35°30' E 139°46'0 0.0
2015-Jan-26 22:31N 35°30' E 139°46'0 0.0
2015-Jan-26 21:31N 35°30' E 139°46'0 0.0
2015-Jan-26 20:32N 35°30' E 139°46'0 0.0
2015-Jan-26 19:32N 35°30' E 139°46'0 0.0
2015-Jan-26 18:32N 35°30' E 139°46'0 0.0
2015-Jan-26 17:32N 35°30' E 139°46'0 0.0
2015-Jan-26 16:31N 35°30' E 139°46'0 0.0
2015-Jan-26 15:32N 35°30' E 139°46'0 0.0
2015-Jan-26 14:32N 35°30' E 139°46'0 0.0
2015-Jan-26 13:32N 35°30' E 139°46'0 0.0
2015-Jan-26 12:32N 35°30' E 139°46'0 0.0
2015-Jan-26 11:31N 35°30' E 139°46'0 0.0
2015-Jan-26 10:31N 35°30' E 139°46'0 0.0
2015-Jan-26 09:31N 35°30' E 139°46'0 0.0
2015-Jan-26 08:31N 35°30' E 139°46'0 0.0
2015-Jan-26 07:31N 35°30' E 139°46'0 0.0
2015-Jan-26 06:32N 35°30' E 139°46'0 0.0
2015-Jan-26 05:32N 35°30' E 139°46'0 0.0
2015-Jan-26 04:31N 35°30' E 139°46'0 0.0
2015-Jan-26 03:32N 35°30' E 139°46'0 0.0
2015-Jan-26 02:31N 35°30' E 139°46'0 0.0
2015-Jan-26 01:31N 35°30' E 139°46'0 0.0
2015-Jan-26 00:31N 35°30' E 139°46'0 0.0
2015-Jan-25 23:31N 35°30' E 139°46'0 0.0
2015-Jan-25 22:31N 35°30' E 139°46'6 6.2
2015-Jan-25 21:33N 35°24' E 139°46'1211.9
2015-Jan-25 20:33N 35°12' E 139°47'7 7.3
2015-Jan-25 19:33N 35°05' E 139°44'9 9.3
2015-Jan-25 18:33N 34°56' E 139°40'1312.9
2015-Jan-25 17:31N 34°43' E 139°35'15 0.4
2015-Jan-24 05:08N 34°57' E 139°27'813.9
2015-Jan-24 04:33N 35°01' E 139°35'1312.9
2015-Jan-24 03:33N 35°11' E 139°46'1111.5
2015-Jan-24 02:33N 35°22' E 139°42'6 6.1
2015-Jan-24 01:32N 35°28' E 139°41'0 0.0
2015-Jan-24 00:32N 35°28' E 139°41'0 0.0
2015-Jan-23 23:32N 35°28' E 139°41'0 0.0
2015-Jan-23 22:29N 35°28' E 139°41'0 0.0
2015-Jan-23 21:29N 35°28' E 139°41'0 0.0
2015-Jan-23 20:32N 35°28' E 139°41'0 0.0
2015-Jan-23 19:32N 35°28' E 139°41'0 0.0
2015-Jan-23 18:32N 35°28' E 139°41'0 0.0
2015-Jan-23 17:32N 35°28' E 139°41'0 0.0
2015-Jan-23 16:32N 35°28' E 139°41'0 0.0
2015-Jan-23 15:32N 35°28' E 139°41'0 0.0
2015-Jan-23 14:32N 35°28' E 139°41'0 0.0
2015-Jan-23 13:32N 35°28' E 139°41'0 0.0
2015-Jan-23 12:32N 35°28' E 139°41'0 0.0
2015-Jan-23 11:32N 35°28' E 139°41'0 0.0
2015-Jan-23 10:32N 35°28' E 139°41'0 0.0
2015-Jan-23 09:32N 35°28' E 139°41'0 0.0
2015-Jan-23 08:32N 35°28' E 139°41'1 1.5
2015-Jan-23 07:34N 35°28' E 139°42'8 7.8
2015-Jan-23 06:34N 35°20' E 139°44'1111.2
2015-Jan-23 05:33N 35°09' E 139°46'7 6.9
2015-Jan-23 04:33N 35°03' E 139°43'7 7.0
2015-Jan-23 03:33N 34°56' E 139°41'9 8.8
2015-Jan-23 02:31N 34°47' E 139°41'12 9.2
2015-Jan-23 01:14N 34°35' E 139°40'  
Track history (hours):
 
Tides and Currents Weather Stations Pressure Air Temp Water Temp Dewpoint Dewpoint Depression Visibility Wind Speed Wind Dir Waves Ship Positions

Heroic Leader

Last reported at 2015-Jan-27 10:10 UTC. Time now 2015-Mar-01 03:04 UTC.
Position N 34°49' E 139°36'.
Warning: this ship's position is 32 days out of date.

Length 200 m; draft 9.1 m.

Type: Cargo ship. MMSI: 311052700.

Date/timePositionNaut miles runAvg speedWind from/ knotsBaromVisibWave heightAir tempDewpointWater temp
2015-Jan-27 10:10N 34°49' E 139°36'813.7
2015-Jan-27 09:33N 34°57' E 139°39'1312.9
2015-Jan-27 08:33N 35°10' E 139°44'1110.6
2015-Jan-27 07:33N 35°20' E 139°42'10 9.7
2015-Jan-27 06:33N 35°30' E 139°46'0 0.1
2015-Jan-27 05:32N 35°30' E 139°46'0 0.0
2015-Jan-27 04:32N 35°30' E 139°46'0 0.0
2015-Jan-27 03:32N 35°30' E 139°46'0 0.0
2015-Jan-27 02:32N 35°30' E 139°46'0 0.0
2015-Jan-27 01:32N 35°30' E 139°46'0 0.0
2015-Jan-27 00:32N 35°30' E 139°46'0 0.0
2015-Jan-26 23:32N 35°30' E 139°46'0 0.0
2015-Jan-26 22:31N 35°30' E 139°46'0 0.0
2015-Jan-26 21:31N 35°30' E 139°46'0 0.0
2015-Jan-26 20:32N 35°30' E 139°46'0 0.0
2015-Jan-26 19:32N 35°30' E 139°46'0 0.0
2015-Jan-26 18:32N 35°30' E 139°46'0 0.0
2015-Jan-26 17:32N 35°30' E 139°46'0 0.0
2015-Jan-26 16:31N 35°30' E 139°46'0 0.0
2015-Jan-26 15:32N 35°30' E 139°46'0 0.0
2015-Jan-26 14:32N 35°30' E 139°46'0 0.0
2015-Jan-26 13:32N 35°30' E 139°46'0 0.0
2015-Jan-26 12:32N 35°30' E 139°46'0 0.0
2015-Jan-26 11:31N 35°30' E 139°46'0 0.0
2015-Jan-26 10:31N 35°30' E 139°46'0 0.0
2015-Jan-26 09:31N 35°30' E 139°46'0 0.0
2015-Jan-26 08:31N 35°30' E 139°46'0 0.0
2015-Jan-26 07:31N 35°30' E 139°46'0 0.0
2015-Jan-26 06:32N 35°30' E 139°46'0 0.0
2015-Jan-26 05:32N 35°30' E 139°46'0 0.0
2015-Jan-26 04:31N 35°30' E 139°46'0 0.0
2015-Jan-26 03:32N 35°30' E 139°46'0 0.0
2015-Jan-26 02:31N 35°30' E 139°46'0 0.0
2015-Jan-26 01:31N 35°30' E 139°46'0 0.0
2015-Jan-26 00:31N 35°30' E 139°46'0 0.0
2015-Jan-25 23:31N 35°30' E 139°46'0 0.0
2015-Jan-25 22:31N 35°30' E 139°46'6 6.2
2015-Jan-25 21:33N 35°24' E 139°46'1211.9
2015-Jan-25 20:33N 35°12' E 139°47'7 7.3
2015-Jan-25 19:33N 35°05' E 139°44'9 9.3
2015-Jan-25 18:33N 34°56' E 139°40'1312.9
2015-Jan-25 17:31N 34°43' E 139°35'15 0.4
2015-Jan-24 05:08N 34°57' E 139°27'813.9
2015-Jan-24 04:33N 35°01' E 139°35'1312.9
2015-Jan-24 03:33N 35°11' E 139°46'1111.5
2015-Jan-24 02:33N 35°22' E 139°42'6 6.1
2015-Jan-24 01:32N 35°28' E 139°41'0 0.0
2015-Jan-24 00:32N 35°28' E 139°41'0 0.0
2015-Jan-23 23:32N 35°28' E 139°41'0 0.0
2015-Jan-23 22:29N 35°28' E 139°41'0 0.0
2015-Jan-23 21:29N 35°28' E 139°41'0 0.0
2015-Jan-23 20:32N 35°28' E 139°41'0 0.0
2015-Jan-23 19:32N 35°28' E 139°41'0 0.0
2015-Jan-23 18:32N 35°28' E 139°41'0 0.0
2015-Jan-23 17:32N 35°28' E 139°41'0 0.0
2015-Jan-23 16:32N 35°28' E 139°41'0 0.0
2015-Jan-23 15:32N 35°28' E 139°41'0 0.0
2015-Jan-23 14:32N 35°28' E 139°41'0 0.0
2015-Jan-23 13:32N 35°28' E 139°41'0 0.0
2015-Jan-23 12:32N 35°28' E 139°41'0 0.0
2015-Jan-23 11:32N 35°28' E 139°41'0 0.0
2015-Jan-23 10:32N 35°28' E 139°41'0 0.0
2015-Jan-23 09:32N 35°28' E 139°41'0 0.0
2015-Jan-23 08:32N 35°28' E 139°41'1 1.5
2015-Jan-23 07:34N 35°28' E 139°42'8 7.8
2015-Jan-23 06:34N 35°20' E 139°44'1111.2
2015-Jan-23 05:33N 35°09' E 139°46'7 6.9
2015-Jan-23 04:33N 35°03' E 139°43'7 7.0
2015-Jan-23 03:33N 34°56' E 139°41'9 8.8
2015-Jan-23 02:31N 34°47' E 139°41'12 9.2
2015-Jan-23 01:14N 34°35' E 139°40'  

Dump ship's entire track history